Terminal Aerodrome Forecast
Issued by NWS

Home | Current Version | Previous Version | Text Only | Print | Product List | Glossary On
Versions: 1 2 3 4 5 6 7 8 9 10 11 12 13 14 15 16 17 18
000
FTUS43 KJKL 042045 AAA
TAFSJS
TAF AMD
KSJS 042045Z 0421/0518 VRB03KT 6SM -RA BR OVC003
     FM042300 VRB03KT 2SM -RA BR OVC003
     FM050400 VRB03KT 4SM -RAPLSN BR OVC006
     FM050900 36008KT 1/2SM SN SCT003 OVC008=

USA.gov is the U.S. government's official web portal to all federal, state and local government web resources and services.